Terminal Aerodrome Forecast
Issued by NWS

Home | Current Version | Previous Version | Graphics & Text | Print | Product List | Glossary On
Versions: 1 2 3 4 5 6 7 8 9 10 11 12 13 14 15
131
FTUS43 KGRB 280538
TAFAUW
TAF
KAUW 280538Z 2806/2906 VRB03KT P6SM SCT030 OVC060
     FM280900 07004KT 5SM BR SCT008 OVC025
      TEMPO 2809/2813 2SM -SHRA BR BKN008
     FM281400 06006KT P6SM VCSH BKN030
     FM282000 06007KT P6SM BKN040
     FM290100 03003KT P6SM SCT040 BKN100=

USA.gov is the U.S. government's official web portal to all federal, state and local government web resources and services.